Latest Coastal Weather Observations for Burnie Port

IDT60701

Issued at 11:42 am EDT Tuesday 6 December 2016 (issued every 10 minutes, with the page automatically refreshed every 10 minutes)

About coastal observations | Map of coastal stations | Coastal observations for TAS | Marine services | Other Formats
Station Details ID: 091344 Name: BURNIE NTC AWS Lat: -41.05 Lon: 145.91 Height: 0.0 m
Data from the previous 72 hours. | See also: Recent months for locations in Tasmania
Date/Time
EDT
Temp
°C
Wind Pressure Rain since
9am
mm
Weather Cloud Vis
km
Sea
Height
m
Swell
Dir  Spd
kts
Gust
kts
hPa Trend Height
m
Period
s
Dir
06/11:30am - WSW 11 21 1010.7 - - - - - - - - -
06/11:00am - WSW 13 22 1011.1 - - - - - - - - -
06/10:30am - SW 13 23 1010.7 - - - - - - - - -
06/10:16am - SW 15 25 1010.7 - - - - - - - - -
06/10:00am - WSW 12 22 1010.4 - - - - - - - - -
06/09:30am - WSW 12 20 1010.7 - - - - - - - - -
06/09:00am - WSW 8 14 1010.8 - - - - - - - - -
06/08:30am - WSW 10 18 1010.6 - - - - - - - - -
06/08:00am - WSW 10 16 1010.9 - - - - - - - - -
06/07:30am - SW 10 16 1010.9 - - - - - - - - -
06/07:00am - SW 10 15 1010.8 - - - - - - - - -
06/06:30am - SW 9 14 1010.7 - - - - - - - - -
06/06:00am - SW 9 14 1010.5 - - - - - - - - -
06/05:30am - SW 10 15 1010.3 - - - - - - - - -
06/05:00am - SW 10 15 1010.3 - - - - - - - - -
06/04:30am - SW 8 11 1009.6 - - - - - - - - -
06/04:00am - SW 8 11 1009.5 - - - - - - - - -
06/03:30am - SSW 4 7 1009.8 - - - - - - - - -
06/03:00am - SSW 4 6 1009.7 - - - - - - - - -
06/02:30am - S 4 5 1010.2 - - - - - - - - -
06/02:00am - SSW 5 7 1009.9 - - - - - - - - -
06/01:30am - S 3 5 1009.9 - - - - - - - - -
06/01:00am - SSW 5 7 1010.0 - - - - - - - - -
06/12:30am - W 3 6 1010.4 - - - - - - - - -
06/12:00am - W 3 7 1010.6 - - - - - - - - -
 
Date/Time
EDT
Temp
°C
Wind Pressure Rain since
9am
mm
Weather Cloud Vis
km
Sea
Height
m
Swell
Dir  Spd
kts
Gust
kts
hPa Trend Height
m
Period
s
Dir
05/11:30pm - WNW 6 9 1010.8 - - - - - - - - -
05/11:00pm - W 3 6 1011.3 - - - - - - - - -
05/10:30pm - WNW 5 9 1011.6 - - - - - - - - -
05/10:00pm - WNW 6 11 1011.4 - - - - - - - - -
05/09:30pm - W 6 10 1010.6 - - - - - - - - -
05/09:00pm - W 5 8 1010.6 - - - - - - - - -
05/08:30pm - WSW 8 14 1010.9 - - - - - - - - -
05/08:00pm - SW 13 19 1010.9 - - - - - - - - -
05/07:30pm - SW 10 17 1010.4 - - - - - - - - -
05/07:00pm - SW 11 18 1009.8 - - - - - - - - -
05/06:30pm - SW 11 18 1008.9 - - - - - - - - -
05/06:00pm - WSW 9 15 1008.9 - - - - - - - - -
05/05:30pm - SW 10 17 1009.4 - - - - - - - - -
05/05:00pm - SW 13 19 1008.8 - - - - - - - - -
05/04:30pm - SW 15 22 1008.8 - - - - - - - - -
05/04:00pm - WSW 11 17 1008.0 - - - - - - - - -
05/03:30pm - SW 13 22 1008.1 - - - - - - - - -
05/03:00pm - WSW 12 25 1007.9 - - - - - - - - -
05/02:30pm - WSW 11 19 1007.8 - - - - - - - - -
05/02:00pm - W 11 19 1007.5 - - - - - - - - -
05/01:30pm - W 13 22 1007.4 - - - - - - - - -
05/01:00pm - W 10 21 1006.9 - - - - - - - - -
05/12:30pm - W 14 23 1007.2 - - - - - - - - -
05/12:00pm - W 9 17 1007.2 - - - - - - - - -
05/11:30am - W 10 20 1007.1 - - - - - - - - -
05/11:00am - WSW 12 21 1007.0 - - - - - - - - -
05/10:30am - WSW 11 19 1006.7 - - - - - - - - -
05/10:00am - WNW 12 19 1006.5 - - - - - - - - -
05/09:30am - W 7 15 1006.2 - - - - - - - - -
05/09:00am - W 13 22 1006.0 - - - - - - - - -
05/08:30am - W 10 24 1005.5 - - - - - - - - -
05/08:00am - W 8 16 1005.4 - - - - - - - - -
05/07:30am - W 9 20 1005.0 - - - - - - - - -
05/07:00am - W 11 21 1004.2 - - - - - - - - -
05/06:30am - W 14 24 1003.2 - - - - - - - - -
05/06:00am - WNW 10 19 1002.2 - - - - - - - - -
05/05:30am - W 9 18 1001.2 - - - - - - - - -
05/05:00am - W 13 20 1000.4 - - - - - - - - -
05/04:30am - W 9 15 999.6 - - - - - - - - -
05/04:00am - W 11 17 998.9 - - - - - - - - -
05/03:30am - WNW 6 9 998.9 - - - - - - - - -
05/03:00am - NW 2 4 999.2 - - - - - - - - -
05/02:30am - NNE 1 3 999.7 - - - - - - - - -
05/02:00am - SE 4 8 1000.2 - - - - - - - - -
05/01:30am - ESE 10 13 999.2 - - - - - - - - -
05/01:00am - ESE 15 16 999.9 - - - - - - - - -
05/12:30am - ESE 11 13 1000.6 - - - - - - - - -
05/12:00am - ESE 11 14 1001.5 - - - - - - - - -
 
Date/Time
EDT
Temp
°C
Wind Pressure Rain since
9am
mm
Weather Cloud Vis
km
Sea
Height
m
Swell
Dir  Spd
kts
Gust
kts
hPa Trend Height
m
Period
s
Dir
04/11:30pm - ESE 10 11 1002.0 - - - - - - - - -
04/11:00pm - ESE 12 13 1002.8 - - - - - - - - -
04/10:30pm - ENE 8 13 1004.1 - - - - - - - - -
04/10:00pm - ESE 8 10 1004.6 - - - - - - - - -
04/09:30pm - ESE 10 13 1004.6 - - - - - - - - -
04/09:00pm - ESE 10 13 1005.4 - - - - - - - - -
04/08:30pm - ESE 12 14 1005.0 - - - - - - - - -
04/08:00pm - ESE 12 14 1004.9 - - - - - - - - -
04/07:30pm - SE 12 14 1005.1 - - - - - - - - -
04/07:00pm - SE 12 14 1005.5 - - - - - - - - -
04/06:30pm - SE 12 13 1006.1 - - - - - - - - -
04/06:00pm - ESE 12 14 1006.4 - - - - - - - - -
04/05:30pm - ESE 10 11 1007.1 - - - - - - - - -
04/05:00pm - SE 9 12 1007.8 - - - - - - - - -
04/04:30pm - SE 9 12 1007.9 - - - - - - - - -
04/04:00pm - ESE 10 12 1008.6 - - - - - - - - -
04/03:30pm - ESE 9 12 1008.8 - - - - - - - - -
04/03:00pm - ESE 10 16 1009.0 - - - - - - - - -
04/02:30pm - ESE 11 13 1009.6 - - - - - - - - -
04/02:00pm - ESE 12 14 1010.1 - - - - - - - - -
04/01:30pm - ESE 13 15 1010.5 - - - - - - - - -
04/01:00pm - ESE 13 16 1011.0 - - - - - - - - -
04/12:30pm - E 13 15 1011.7 - - - - - - - - -
04/12:00pm - ESE 15 17 1012.3 - - - - - - - - -
04/11:30am - ESE 15 18 1012.5 - - - - - - - - -
04/11:00am - ESE 14 17 1012.7 - - - - - - - - -
04/10:30am - ESE 14 15 1012.9 - - - - - - - - -
04/10:00am - ESE 13 15 1013.3 - - - - - - - - -
04/09:30am - ESE 12 14 1013.1 - - - - - - - - -
04/09:00am - ESE 9 11 1013.6 - - - - - - - - -
04/08:30am - ESE 11 11 1013.7 - - - - - - - - -
04/08:00am - ESE 9 11 1013.5 - - - - - - - - -
04/07:30am - SSE 6 8 1013.5 - - - - - - - - -
04/07:00am - S 7 8 1013.7 - - - - - - - - -
04/06:30am - S 8 9 1013.7 - - - - - - - - -
04/06:00am - SSW 5 7 1014.0 - - - - - - - - -
04/05:30am - SSW 5 6 1013.7 - - - - - - - - -
04/05:00am - S 3 4 1013.3 - - - - - - - - -
04/04:30am - SSW 4 5 1013.0 - - - - - - - - -
04/04:00am - SSW 5 6 1013.1 - - - - - - - - -
04/03:30am - SSW 4 6 1013.3 - - - - - - - - -
04/03:00am - SSW 4 6 1013.5 - - - - - - - - -
04/02:30am - SSW 5 6 1013.5 - - - - - - - - -
04/02:00am - S 5 6 1013.7 - - - - - - - - -
04/01:30am - SW 5 7 1014.0 - - - - - - - - -
04/01:00am - SSW 7 11 1014.4 - - - - - - - - -
04/12:30am - SSW 7 9 1014.5 - - - - - - - - -
04/12:00am - SW 8 12 1014.5 - - - - - - - - -
 
Date/Time
EDT
Temp
°C
Wind Pressure Rain since
9am
mm
Weather Cloud Vis
km
Sea
Height
m
Swell
Dir  Spd
kts
Gust
kts
hPa Trend Height
m
Period
s
Dir
03/11:30pm - SW 9 13 1014.6 - - - - - - - - -
03/11:00pm - WSW 7 12 1015.0 - - - - - - - - -

Other Formats:

Comma delimited format used in spreadsheet applications
http://www.bom.gov.au/fwo/IDT60701/IDT60701.95963.axf

JavaScript Object Notation format (JSON) in row-major order
http://www.bom.gov.au/fwo/IDT60701/IDT60701.95963.json